Time;durP1;ratioP1;P1;durP2;ratioP2;P2;SDS_P1;SDS_P2;PMS_P1;PMS_P2;Temp;Humidity;BMP_temperature;BMP_pressure;BME280_temperature;BME280_humidity;BME280_pressure;Samples;Min_cycle;Max_cycle;Signal;HPM_P1;HPM_P2
2022/03/14 00:02:03;;;;;;;5.25;2.80;;;;;;;;;;5087380;28;20066;-70
2022/03/14 00:04:29;;;;;;;5.35;3.00;;;;;;;;;;5086780;28;20413;-69
2022/03/14 00:06:56;;;;;;;5.35;2.80;;;;;;;;;;5087920;28;20457;-70
2022/03/14 00:09:22;;;;;;;5.13;2.85;;;;;;;;;;5088158;28;20042;-69
2022/03/14 00:11:48;;;;;;;4.55;2.90;;;;;;;;;;5087695;28;20520;-69
2022/03/14 00:14:14;;;;;;;4.22;3.03;;;;;;;;;;5087277;28;20082;-71
2022/03/14 00:16:45;;;;;;;4.72;2.95;;;;;;;;;;5087310;28;20151;-69
2022/03/14 00:19:12;;;;;;;4.30;2.90;;;;;;;;;;5087757;28;20054;-69
2022/03/14 00:21:39;;;;;;;4.60;2.80;;;;;;;;;;5087197;28;20040;-69
2022/03/14 00:24:06;;;;;;;5.93;3.30;;;;;;;;;;5087250;28;20048;-69
2022/03/14 00:26:33;;;;;;;6.00;2.95;;;;;;;;;;5070003;28;20052;-70
2022/03/14 00:28:59;;;;;;;4.40;2.83;;;;;;;;;;5087321;28;20047;-70
2022/03/14 00:31:25;;;;;;;4.93;2.95;;;;;;;;;;5087452;28;20056;-68
2022/03/14 00:33:51;;;;;;;4.82;2.80;;;;;;;;;;5052037;28;20060;-69
2022/03/14 00:36:19;;;;;;;4.93;2.60;;;;;;;;;;5087475;28;20092;-69
2022/03/14 00:38:46;;;;;;;4.00;2.65;;;;;;;;;;5087617;28;20048;-68
2022/03/14 00:41:16;;;;;;;4.05;2.80;;;;;;;;;;5052862;28;20044;-71
2022/03/14 00:43:42;;;;;;;4.05;3.00;;;;;;;;;;5087060;28;20421;-70
2022/03/14 00:46:09;;;;;;;5.97;3.20;;;;;;;;;;5087221;28;20559;-71
2022/03/14 00:48:35;;;;;;;5.60;2.95;;;;;;;;;;5087294;28;20291;-68
2022/03/14 00:51:02;;;;;;;4.15;3.10;;;;;;;;;;5087102;28;20052;-68
2022/03/14 00:53:29;;;;;;;7.85;3.55;;;;;;;;;;5069177;28;20151;-68
2022/03/14 00:55:55;;;;;;;5.03;3.13;;;;;;;;;;5087127;28;20043;-69
2022/03/14 00:58:21;;;;;;;5.68;2.95;;;;;;;;;;5086668;28;20044;-69
2022/03/14 01:00:48;;;;;;;11.77;2.90;;;;;;;;;;5087143;28;20052;-69
2022/03/14 01:03:15;;;;;;;4.53;2.90;;;;;;;;;;5087207;28;20048;-69
2022/03/14 01:05:41;;;;;;;4.53;3.05;;;;;;;;;;5086630;28;20076;-69
2022/03/14 01:08:08;;;;;;;6.22;2.90;;;;;;;;;;5087315;28;20051;-69
2022/03/14 01:10:34;;;;;;;4.13;2.70;;;;;;;;;;5086977;28;20056;-68
2022/03/14 01:13:03;;;;;;;8.20;3.10;;;;;;;;;;5087221;28;20048;-68
2022/03/14 01:15:32;;;;;;;4.80;2.87;;;;;;;;;;5089145;28;20412;-69
2022/03/14 01:17:58;;;;;;;5.10;2.95;;;;;;;;;;5090175;28;20490;-69
2022/03/14 01:20:25;;;;;;;5.75;2.95;;;;;;;;;;5090424;28;20477;-69
2022/03/14 01:22:54;;;;;;;4.32;2.70;;;;;;;;;;5090432;28;20446;-68
2022/03/14 01:25:20;;;;;;;7.47;2.95;;;;;;;;;;5090836;28;20123;-67
2022/03/14 01:27:46;;;;;;;4.47;2.92;;;;;;;;;;5090483;28;20052;-67
2022/03/14 01:30:15;;;;;;;5.22;3.15;;;;;;;;;;5089837;28;20083;-67
2022/03/14 01:32:41;;;;;;;5.50;2.85;;;;;;;;;;5090594;28;20454;-67
2022/03/14 01:35:07;;;;;;;5.65;3.22;;;;;;;;;;5090532;28;20052;-68
2022/03/14 01:37:34;;;;;;;4.97;2.63;;;;;;;;;;5089365;28;20108;-68
2022/03/14 01:40:00;;;;;;;4.57;3.00;;;;;;;;;;5090577;28;20036;-68
2022/03/14 01:42:26;;;;;;;5.22;2.97;;;;;;;;;;5090380;28;20048;-68
2022/03/14 01:44:52;;;;;;;5.00;2.85;;;;;;;;;;5090219;28;20581;-68
2022/03/14 01:47:18;;;;;;;5.18;2.97;;;;;;;;;;5089820;28;20048;-68
2022/03/14 01:49:45;;;;;;;5.63;2.75;;;;;;;;;;5090869;28;20112;-68
2022/03/14 01:52:13;;;;;;;4.07;2.78;;;;;;;;;;5055695;28;20077;-68
2022/03/14 01:54:39;;;;;;;5.60;3.22;;;;;;;;;;5072681;28;20354;-68
2022/03/14 01:57:05;;;;;;;4.60;2.97;;;;;;;;;;5090692;28;20044;-68
2022/03/14 01:59:32;;;;;;;5.07;3.10;;;;;;;;;;5090600;28;20075;-68
2022/03/14 02:01:58;;;;;;;4.45;2.55;;;;;;;;;;5090260;28;20125;-68
2022/03/14 02:04:24;;;;;;;4.53;2.92;;;;;;;;;;5090501;28;20043;-68
2022/03/14 02:06:54;;;;;;;4.35;2.60;;;;;;;;;;5090695;28;20079;-68
2022/03/14 02:09:23;;;;;;;4.93;2.88;;;;;;;;;;5090640;28;20040;-68
2022/03/14 02:11:52;;;;;;;5.03;2.70;;;;;;;;;;5090379;28;20052;-68
2022/03/14 02:14:18;;;;;;;6.30;2.78;;;;;;;;;;5090286;28;20532;-68
2022/03/14 02:16:44;;;;;;;3.55;2.55;;;;;;;;;;5090268;28;20047;-68
2022/03/14 02:19:10;;;;;;;4.60;2.75;;;;;;;;;;5090304;28;20444;-69
2022/03/14 02:21:38;;;;;;;4.72;2.40;;;;;;;;;;5090030;28;20044;-69
2022/03/14 02:24:04;;;;;;;3.97;2.45;;;;;;;;;;5090272;28;20395;-68
2022/03/14 02:26:30;;;;;;;6.85;3.10;;;;;;;;;;5089371;28;20069;-69
2022/03/14 02:28:56;;;;;;;6.15;2.95;;;;;;;;;;5089474;28;20048;-68
2022/03/14 02:31:24;;;;;;;3.95;2.60;;;;;;;;;;5071867;28;20044;-68
2022/03/14 02:33:50;;;;;;;4.65;3.08;;;;;;;;;;5089533;28;20064;-68
2022/03/14 02:36:16;;;;;;;4.82;2.40;;;;;;;;;;5089957;28;20278;-68
2022/03/14 02:38:43;;;;;;;4.88;2.78;;;;;;;;;;5090061;28;20050;-69
2022/03/14 02:41:10;;;;;;;4.20;2.75;;;;;;;;;;5090051;28;20115;-68
2022/03/14 02:43:36;;;;;;;4.57;2.95;;;;;;;;;;5070951;28;20093;-67
2022/03/14 02:46:03;;;;;;;5.78;2.60;;;;;;;;;;5089760;28;20048;-67
2022/03/14 02:48:30;;;;;;;4.68;2.80;;;;;;;;;;5089551;28;20446;-67
2022/03/14 02:50:56;;;;;;;4.47;2.70;;;;;;;;;;5089451;28;20083;-68
2022/03/14 02:53:23;;;;;;;3.83;2.70;;;;;;;;;;5071526;28;20071;-67
2022/03/14 02:55:49;;;;;;;4.32;2.67;;;;;;;;;;5089206;28;20398;-68
2022/03/14 02:58:15;;;;;;;4.88;2.90;;;;;;;;;;5088931;28;20399;-67
2022/03/14 03:00:42;;;;;;;6.00;2.70;;;;;;;;;;5071147;28;20052;-70
2022/03/14 03:03:11;;;;;;;11.07;3.15;;;;;;;;;;5071450;28;20485;-67
2022/03/14 03:05:43;;;;;;;4.55;2.70;;;;;;;;;;5088883;28;20127;-67
2022/03/14 03:08:09;;;;;;;9.30;3.13;;;;;;;;;;5089568;28;20043;-67
2022/03/14 03:10:35;;;;;;;7.38;2.85;;;;;;;;;;5089301;28;20051;-67
2022/03/14 03:13:01;;;;;;;4.68;2.70;;;;;;;;;;5071310;28;20052;-68
2022/03/14 03:15:28;;;;;;;8.05;3.00;;;;;;;;;;5088378;28;20040;-67
2022/03/14 03:17:54;;;;;;;7.40;2.85;;;;;;;;;;5089177;28;20055;-67
2022/03/14 03:20:20;;;;;;;7.88;2.50;;;;;;;;;;5088868;28;20036;-68
2022/03/14 03:22:46;;;;;;;10.07;2.53;;;;;;;;;;5088957;28;20055;-67
2022/03/14 03:25:12;;;;;;;5.28;2.40;;;;;;;;;;5089002;28;20048;-67
2022/03/14 03:27:39;;;;;;;3.78;2.42;;;;;;;;;;5070423;28;20136;-67
2022/03/14 03:30:05;;;;;;;6.65;2.45;;;;;;;;;;5088842;28;20055;-68
2022/03/14 03:32:31;;;;;;;4.13;2.50;;;;;;;;;;5088727;28;20217;-68
2022/03/14 03:34:58;;;;;;;6.63;2.78;;;;;;;;;;5070671;28;20462;-68
2022/03/14 03:37:24;;;;;;;6.68;2.92;;;;;;;;;;5070492;28;20508;-68
2022/03/14 03:39:50;;;;;;;4.80;2.75;;;;;;;;;;5088059;28;20047;-68
2022/03/14 03:42:16;;;;;;;4.57;2.70;;;;;;;;;;5088602;28;20071;-68
2022/03/14 03:44:42;;;;;;;3.95;2.42;;;;;;;;;;5088610;28;20137;-68
2022/03/14 03:47:08;;;;;;;4.80;2.63;;;;;;;;;;5088186;28;20063;-68
2022/03/14 03:49:35;;;;;;;4.40;2.78;;;;;;;;;;5088676;28;20044;-68
2022/03/14 03:52:01;;;;;;;5.60;2.83;;;;;;;;;;5088760;28;20089;-68
2022/03/14 03:54:27;;;;;;;6.35;2.92;;;;;;;;;;5070212;28;20048;-68
2022/03/14 03:56:53;;;;;;;4.53;2.60;;;;;;;;;;5087952;28;20052;-68
2022/03/14 03:59:19;;;;;;;4.97;2.72;;;;;;;;;;5088306;28;20087;-67
2022/03/14 04:01:46;;;;;;;3.70;2.40;;;;;;;;;;5088695;28;20186;-67
2022/03/14 04:04:12;;;;;;;5.75;2.67;;;;;;;;;;5088422;28;20044;-67
2022/03/14 04:06:41;;;;;;;6.75;2.80;;;;;;;;;;5069729;28;20417;-67
2022/03/14 04:09:09;;;;;;;3.53;2.40;;;;;;;;;;5088357;28;20139;-67
2022/03/14 04:11:35;;;;;;;4.00;2.60;;;;;;;;;;5088097;28;20425;-68
2022/03/14 04:14:02;;;;;;;4.57;2.58;;;;;;;;;;5088577;28;20101;-67
2022/03/14 04:16:29;;;;;;;3.78;2.50;;;;;;;;;;5087654;28;20346;-67
2022/03/14 04:18:55;;;;;;;5.82;2.85;;;;;;;;;;5088551;28;20516;-67
2022/03/14 04:21:21;;;;;;;5.97;2.72;;;;;;;;;;5088305;28;20058;-67
2022/03/14 04:23:48;;;;;;;4.00;2.50;;;;;;;;;;5088237;28;20071;-67
2022/03/14 04:26:14;;;;;;;4.30;2.53;;;;;;;;;;5088322;28;20048;-67
2022/03/14 04:28:41;;;;;;;5.45;2.63;;;;;;;;;;5069302;28;20487;-67
2022/03/14 04:31:08;;;;;;;3.78;2.22;;;;;;;;;;5088018;28;20060;-67
2022/03/14 04:33:34;;;;;;;3.53;2.58;;;;;;;;;;5088014;28;20480;-67
2022/03/14 04:36:00;;;;;;;6.72;2.50;;;;;;;;;;5087896;28;20403;-67
2022/03/14 04:38:27;;;;;;;4.78;2.60;;;;;;;;;;5087449;28;20056;-67
2022/03/14 04:40:53;;;;;;;3.28;2.30;;;;;;;;;;5087968;28;20590;-67
2022/03/14 04:43:21;;;;;;;4.90;2.55;;;;;;;;;;5087807;28;20131;-68
2022/03/14 04:45:47;;;;;;;3.40;2.22;;;;;;;;;;5088342;28;20095;-68
2022/03/14 04:48:13;;;;;;;3.85;2.70;;;;;;;;;;5088041;28;20040;-67
2022/03/14 04:50:41;;;;;;;5.85;2.35;;;;;;;;;;5090169;28;20079;-68
2022/03/14 04:53:08;;;;;;;5.85;2.42;;;;;;;;;;5091843;28;20502;-68
2022/03/14 04:55:34;;;;;;;4.47;2.20;;;;;;;;;;5091756;28;20465;-67
2022/03/14 04:58:01;;;;;;;4.90;2.35;;;;;;;;;;5091664;28;20113;-68
2022/03/14 05:00:30;;;;;;;4.38;2.58;;;;;;;;;;5091297;28;20172;-68
2022/03/14 05:03:03;;;;;;;3.42;2.08;;;;;;;;;;5091758;28;20405;-68
2022/03/14 05:05:30;;;;;;;4.70;3.17;;;;;;;;;;5091660;28;20050;-69
2022/03/14 05:07:56;;;;;;;2.70;1.88;;;;;;;;;;5073519;28;20051;-68
2022/03/14 05:10:23;;;;;;;3.85;2.45;;;;;;;;;;5091462;28;20123;-68
2022/03/14 05:12:49;;;;;;;3.90;2.30;;;;;;;;;;5091139;28;20040;-67
2022/03/14 05:15:18;;;;;;;4.25;2.30;;;;;;;;;;5073237;28;20047;-67
2022/03/14 05:17:47;;;;;;;5.18;2.72;;;;;;;;;;5091425;28;20040;-68
2022/03/14 05:20:14;;;;;;;3.45;2.20;;;;;;;;;;5091403;28;20047;-67
2022/03/14 05:22:48;;;;;;;4.38;2.10;;;;;;;;;;5072793;28;20062;-68
2022/03/14 05:25:15;;;;;;;4.35;2.92;;;;;;;;;;5073307;28;20048;-67
2022/03/14 05:27:41;;;;;;;3.28;2.20;;;;;;;;;;5091171;28;20123;-68
2022/03/14 05:30:10;;;;;;;3.63;2.25;;;;;;;;;;5091241;28;20036;-68
2022/03/14 05:32:37;;;;;;;3.42;2.22;;;;;;;;;;5072669;28;20089;-68
2022/03/14 05:35:03;;;;;;;2.83;1.85;;;;;;;;;;5090873;28;20135;-68
2022/03/14 05:37:30;;;;;;;3.22;1.95;;;;;;;;;;5090901;28;20052;-68
2022/03/14 05:39:56;;;;;;;3.60;2.40;;;;;;;;;;5091091;28;20435;-69
2022/03/14 05:42:23;;;;;;;2.80;1.95;;;;;;;;;;5091119;28;20063;-69
2022/03/14 05:44:49;;;;;;;3.10;2.03;;;;;;;;;;5090874;28;20040;-68
2022/03/14 05:47:15;;;;;;;3.05;2.25;;;;;;;;;;5090683;28;20048;-69
2022/03/14 05:49:41;;;;;;;2.75;1.85;;;;;;;;;;5071961;28;20127;-68
2022/03/14 05:52:07;;;;;;;3.05;2.00;;;;;;;;;;5090675;28;20044;-68
2022/03/14 05:54:34;;;;;;;3.83;2.22;;;;;;;;;;5090641;28;20425;-67
2022/03/14 05:57:00;;;;;;;3.35;2.05;;;;;;;;;;5090706;28;20052;-68
2022/03/14 05:59:27;;;;;;;4.35;2.15;;;;;;;;;;5090401;28;20108;-68
2022/03/14 06:01:53;;;;;;;2.78;1.52;;;;;;;;;;5088789;28;20344;-67
2022/03/14 06:04:19;;;;;;;3.53;2.20;;;;;;;;;;5090665;28;20052;-68
2022/03/14 06:06:47;;;;;;;2.65;1.75;;;;;;;;;;5103248;28;20445;-68
2022/03/14 06:09:13;;;;;;;4.55;2.08;;;;;;;;;;5090778;28;20048;-71
2022/03/14 06:11:39;;;;;;;4.80;2.35;;;;;;;;;;5090303;28;20063;-67
2022/03/14 06:14:05;;;;;;;7.05;1.98;;;;;;;;;;5090046;28;20043;-68
2022/03/14 06:16:32;;;;;;;7.72;2.30;;;;;;;;;;5090456;28;20048;-68
2022/03/14 06:18:58;;;;;;;6.75;2.30;;;;;;;;;;5089748;28;20040;-67
2022/03/14 06:21:24;;;;;;;6.68;2.25;;;;;;;;;;5070901;28;20525;-68
2022/03/14 06:23:50;;;;;;;3.13;1.98;;;;;;;;;;5070018;28;20478;-67
2022/03/14 06:26:17;;;;;;;5.72;2.20;;;;;;;;;;5069912;28;20044;-67
2022/03/14 06:28:43;;;;;;;7.25;1.83;;;;;;;;;;5069726;28;20498;-67
2022/03/14 06:31:10;;;;;;;4.63;2.10;;;;;;;;;;5069839;28;20139;-67
2022/03/14 06:33:36;;;;;;;5.13;2.00;;;;;;;;;;5069725;28;20114;-67
2022/03/14 06:36:03;;;;;;;6.50;1.95;;;;;;;;;;5069658;28;20041;-67
2022/03/14 06:38:29;;;;;;;4.43;2.00;;;;;;;;;;5051545;28;20084;-67
2022/03/14 06:40:56;;;;;;;4.55;2.00;;;;;;;;;;5070089;28;20083;-67
2022/03/14 06:43:23;;;;;;;7.00;1.90;;;;;;;;;;5069454;28;20049;-67
2022/03/14 06:45:49;;;;;;;3.67;1.80;;;;;;;;;;5070112;28;20424;-67
2022/03/14 06:48:15;;;;;;;3.40;1.77;;;;;;;;;;5052016;28;20059;-67
2022/03/14 06:50:41;;;;;;;2.97;1.80;;;;;;;;;;5051490;28;20129;-67
2022/03/14 06:53:07;;;;;;;2.53;1.60;;;;;;;;;;5069491;28;20411;-67
2022/03/14 06:55:33;;;;;;;4.80;2.05;;;;;;;;;;5051772;28;20107;-67
2022/03/14 06:57:59;;;;;;;3.33;1.70;;;;;;;;;;5051721;28;20387;-67
2022/03/14 07:00:27;;;;;;;5.00;2.10;;;;;;;;;;5051102;28;20044;-67
2022/03/14 07:02:53;;;;;;;2.88;1.88;;;;;;;;;;5068817;28;20041;-67
2022/03/14 07:05:21;;;;;;;6.88;1.98;;;;;;;;;;5051693;28;20044;-69
2022/03/14 07:07:50;;;;;;;3.67;2.38;;;;;;;;;;5068987;28;20067;-68
2022/03/14 07:10:16;;;;;;;4.88;1.77;;;;;;;;;;5068453;28;20407;-67
2022/03/14 07:12:46;;;;;;;2.75;1.42;;;;;;;;;;5068128;28;20523;-69
2022/03/14 07:15:22;;;;;;;4.10;1.50;;;;;;;;;;5068310;28;20070;-69
2022/03/14 07:17:49;;;;;;;2.40;1.60;;;;;;;;;;5069050;28;20066;-67
2022/03/14 07:20:18;;;;;;;2.67;1.50;;;;;;;;;;5068549;28;20554;-68
2022/03/14 07:22:48;;;;;;;4.70;1.63;;;;;;;;;;5069080;28;20086;-69
2022/03/14 07:25:14;;;;;;;3.28;1.90;;;;;;;;;;5068713;28;20041;-69
2022/03/14 07:27:40;;;;;;;3.83;1.80;;;;;;;;;;5068459;28;20131;-69
2022/03/14 07:30:06;;;;;;;5.40;1.80;;;;;;;;;;5068798;28;20131;-69
2022/03/14 07:32:32;;;;;;;3.35;1.83;;;;;;;;;;5068120;28;20135;-69
2022/03/14 07:34:58;;;;;;;3.45;1.80;;;;;;;;;;5068961;28;20140;-67
2022/03/14 07:37:25;;;;;;;2.70;1.70;;;;;;;;;;5051034;28;20082;-67
2022/03/14 07:39:51;;;;;;;7.15;1.90;;;;;;;;;;5068859;28;20498;-68
2022/03/14 07:42:17;;;;;;;3.50;1.65;;;;;;;;;;5068146;28;20082;-68
2022/03/14 07:44:43;;;;;;;2.95;1.42;;;;;;;;;;5068488;28;20084;-67
2022/03/14 07:47:10;;;;;;;3.50;1.98;;;;;;;;;;5068743;28;20460;-68
2022/03/14 07:49:37;;;;;;;3.03;1.67;;;;;;;;;;5068326;28;20040;-68
2022/03/14 07:52:03;;;;;;;3.08;1.67;;;;;;;;;;5068725;28;20103;-68
2022/03/14 07:54:29;;;;;;;4.00;1.80;;;;;;;;;;5068019;28;20364;-68
2022/03/14 07:56:55;;;;;;;2.97;1.65;;;;;;;;;;5068156;28;20052;-68
2022/03/14 07:59:21;;;;;;;2.78;1.50;;;;;;;;;;5068880;28;20162;-68
2022/03/14 08:01:47;;;;;;;7.22;1.90;;;;;;;;;;5068475;28;20048;-69
2022/03/14 08:04:13;;;;;;;2.42;1.35;;;;;;;;;;5067816;28;20048;-68
2022/03/14 08:06:42;;;;;;;4.65;1.50;;;;;;;;;;5068369;28;20129;-68
2022/03/14 08:09:11;;;;;;;17.07;2.10;;;;;;;;;;5050507;28;20051;-68
2022/03/14 08:11:40;;;;;;;;;;;;;;;;;;5068477;28;20576;-71
2022/03/14 08:14:07;;;;;;;6.68;1.20;;;;;;;;;;5050907;28;20010;-70
2022/03/14 08:16:33;;;;;;;4.65;1.40;;;;;;;;;;5068253;28;20049;-69
2022/03/14 08:18:59;;;;;;;3.72;1.30;;;;;;;;;;5067853;28;20056;-69
2022/03/14 08:21:25;;;;;;;2.13;1.30;;;;;;;;;;5068208;28;20059;-67
2022/03/14 08:23:51;;;;;;;2.28;1.40;;;;;;;;;;5068129;28;20048;-68
2022/03/14 08:26:17;;;;;;;3.92;1.33;;;;;;;;;;5054237;28;20052;-70
2022/03/14 08:28:44;;;;;;;2.20;1.40;;;;;;;;;;5076063;28;20051;-68
2022/03/14 08:31:14;;;;;;;1.77;1.20;;;;;;;;;;5092113;28;20044;-69
2022/03/14 08:33:41;;;;;;;1.52;1.10;;;;;;;;;;5091077;28;20118;-69
2022/03/14 08:36:08;;;;;;;2.90;1.40;;;;;;;;;;5092093;28;20119;-69
2022/03/14 08:38:34;;;;;;;1.98;1.30;;;;;;;;;;5092426;28;20044;-68
2022/03/14 08:41:00;;;;;;;1.55;1.10;;;;;;;;;;5074472;28;20452;-69
2022/03/14 08:43:26;;;;;;;3.17;1.20;;;;;;;;;;5092566;28;20192;-69
2022/03/14 08:45:54;;;;;;;2.08;1.40;;;;;;;;;;5092073;28;20094;-67
2022/03/14 08:48:20;;;;;;;1.38;1.10;;;;;;;;;;5073678;28;20126;-67
2022/03/14 08:50:46;;;;;;;2.17;1.40;;;;;;;;;;5092004;28;20087;-68
2022/03/14 08:53:12;;;;;;;1.70;1.30;;;;;;;;;;5092212;28;20040;-67
2022/03/14 08:55:38;;;;;;;2.13;1.30;;;;;;;;;;5092038;28;20060;-69
2022/03/14 08:58:05;;;;;;;1.55;1.15;;;;;;;;;;5091806;28;20054;-68
2022/03/14 09:00:31;;;;;;;1.77;1.20;;;;;;;;;;5073907;28;20044;-68
2022/03/14 09:02:57;;;;;;;4.10;1.42;;;;;;;;;;5074117;28;20109;-68
2022/03/14 09:05:23;;;;;;;1.48;1.00;;;;;;;;;;5091391;28;20090;-68
2022/03/14 09:07:51;;;;;;;3.35;1.23;;;;;;;;;;5074110;28;20056;-69
2022/03/14 09:10:17;;;;;;;1.52;1.25;;;;;;;;;;5073405;28;20055;-68
2022/03/14 09:12:44;;;;;;;1.55;1.08;;;;;;;;;;5091551;28;20052;-69
2022/03/14 09:15:13;;;;;;;2.03;1.25;;;;;;;;;;5070586;28;20044;-68
2022/03/14 09:17:49;;;;;;;2.15;1.30;;;;;;;;;;5072641;28;20070;-71
2022/03/14 09:20:16;;;;;;;1.92;1.17;;;;;;;;;;5090988;28;20759;-69
2022/03/14 09:22:44;;;;;;;1.75;1.27;;;;;;;;;;5091669;28;20052;-68
2022/03/14 09:25:10;;;;;;;2.97;1.42;;;;;;;;;;5091609;28;20060;-68
2022/03/14 09:27:36;;;;;;;1.92;1.33;;;;;;;;;;5090444;28;20047;-69
2022/03/14 09:30:02;;;;;;;2.70;1.08;;;;;;;;;;5091415;28;21545;-70
2022/03/14 09:32:28;;;;;;;2.08;1.30;;;;;;;;;;5089375;28;20389;-71
2022/03/14 09:34:57;;;;;;;2.05;1.30;;;;;;;;;;5090747;28;20068;-71
2022/03/14 09:37:23;;;;;;;3.05;1.40;;;;;;;;;;5091510;28;20409;-70
2022/03/14 09:39:49;;;;;;;2.15;1.35;;;;;;;;;;5091311;28;20042;-71
2022/03/14 09:42:15;;;;;;;2.15;1.50;;;;;;;;;;5091160;28;20052;-71
2022/03/14 09:44:43;;;;;;;2.65;1.60;;;;;;;;;;5090919;28;20383;-70
2022/03/14 09:47:09;;;;;;;3.20;2.00;;;;;;;;;;5090825;28;20040;-71
2022/03/14 09:49:35;;;;;;;3.15;1.90;;;;;;;;;;5090740;28;20178;-71
2022/03/14 09:52:02;;;;;;;3.00;1.90;;;;;;;;;;5090793;28;20532;-70
2022/03/14 09:54:28;;;;;;;3.47;2.03;;;;;;;;;;5091281;28;20212;-70
2022/03/14 09:56:56;;;;;;;2.92;1.92;;;;;;;;;;5090536;28;20584;-70
2022/03/14 09:59:22;;;;;;;4.65;2.80;;;;;;;;;;5090120;28;20097;-70
2022/03/14 10:01:49;;;;;;;5.63;3.30;;;;;;;;;;5089565;28;20071;-70
2022/03/14 10:04:15;;;;;;;6.85;3.95;;;;;;;;;;5090647;28;20105;-70
2022/03/14 10:06:41;;;;;;;6.88;4.20;;;;;;;;;;5090658;28;20052;-71
2022/03/14 10:09:07;;;;;;;7.90;4.97;;;;;;;;;;5090934;28;20479;-69
2022/03/14 10:11:34;;;;;;;6.55;4.00;;;;;;;;;;5090294;28;20059;-69
2022/03/14 10:14:02;;;;;;;7.57;4.75;;;;;;;;;;5089174;28;20069;-70
2022/03/14 10:16:28;;;;;;;9.45;4.70;;;;;;;;;;5089664;28;20052;-70
2022/03/14 10:18:58;;;;;;;17.08;5.20;;;;;;;;;;5071557;28;20058;-70
2022/03/14 10:21:34;;;;;;;6.75;4.15;;;;;;;;;;5090455;28;20044;-69
2022/03/14 10:24:01;;;;;;;10.52;5.05;;;;;;;;;;5090108;28;20413;-69
2022/03/14 10:26:29;;;;;;;11.00;5.13;;;;;;;;;;5072007;28;20136;-69
2022/03/14 10:28:56;;;;;;;7.20;4.22;;;;;;;;;;5071498;28;20423;-70
2022/03/14 10:31:29;;;;;;;10.02;5.20;;;;;;;;;;5069681;28;20731;-70
2022/03/14 10:34:08;;;;;;;8.68;4.60;;;;;;;;;;5059226;28;20088;-69
2022/03/14 10:36:42;;;;;;;13.00;4.10;;;;;;;;;;5049477;28;20057;-68
2022/03/14 10:39:12;;;;;;;7.85;3.88;;;;;;;;;;5048175;28;20079;-69
2022/03/14 10:41:39;;;;;;;7.45;4.00;;;;;;;;;;5049659;28;20486;-69
2022/03/14 10:44:06;;;;;;;7.70;3.67;;;;;;;;;;5050059;28;20510;-68
2022/03/14 10:46:32;;;;;;;7.30;4.05;;;;;;;;;;5049696;28;20049;-68
2022/03/14 10:48:58;;;;;;;8.45;3.47;;;;;;;;;;5048336;28;20529;-68
2022/03/14 10:51:25;;;;;;;5.75;3.35;;;;;;;;;;5048242;28;20380;-69
2022/03/14 10:53:51;;;;;;;6.15;3.40;;;;;;;;;;5049640;28;20049;-69
2022/03/14 10:56:26;;;;;;;5.90;3.40;;;;;;;;;;5049589;28;20132;-69
2022/03/14 10:58:56;;;;;;;5.75;3.08;;;;;;;;;;5048379;28;20060;-69
2022/03/14 11:01:22;;;;;;;;;;;;;;;;;;5048381;28;20091;-68
2022/03/14 11:03:48;;;;;;;6.00;3.22;;;;;;;;;;5049584;28;20343;-68
2022/03/14 11:06:15;;;;;;;4.00;2.67;;;;;;;;;;5049517;28;20693;-68
2022/03/14 11:08:44;;;;;;;5.35;3.10;;;;;;;;;;5048589;28;20053;-68
2022/03/14 11:11:11;;;;;;;6.75;3.60;;;;;;;;;;5048097;28;20059;-68
2022/03/14 11:13:39;;;;;;;4.95;3.17;;;;;;;;;;5048284;28;20095;-68
2022/03/14 11:16:05;;;;;;;4.32;2.58;;;;;;;;;;5049500;28;20068;-68
2022/03/14 11:18:33;;;;;;;5.35;3.13;;;;;;;;;;5049152;28;20049;-68
2022/03/14 11:21:00;;;;;;;5.50;2.80;;;;;;;;;;5048308;28;20069;-68
2022/03/14 11:23:27;;;;;;;4.55;2.80;;;;;;;;;;5048728;28;20336;-68
2022/03/14 11:25:53;;;;;;;5.05;3.15;;;;;;;;;;5048581;28;20082;-68
2022/03/14 11:28:24;;;;;;;5.35;3.08;;;;;;;;;;5048940;28;20487;-68
2022/03/14 11:30:54;;;;;;;4.63;2.50;;;;;;;;;;5049750;28;20041;-68
2022/03/14 11:33:21;;;;;;;4.50;2.58;;;;;;;;;;5060081;28;20083;-68
2022/03/14 11:35:47;;;;;;;5.60;2.50;;;;;;;;;;5069770;28;20052;-68
2022/03/14 11:38:14;;;;;;;6.65;2.85;;;;;;;;;;5088275;28;20402;-68
2022/03/14 11:40:41;;;;;;;6.22;2.60;;;;;;;;;;5088295;28;20040;-68
2022/03/14 11:43:08;;;;;;;5.70;2.25;;;;;;;;;;5088135;28;20414;-68
2022/03/14 11:45:34;;;;;;;4.95;2.22;;;;;;;;;;5087957;28;20047;-68
2022/03/14 11:48:01;;;;;;;12.43;3.42;;;;;;;;;;5088388;28;20424;-68
2022/03/14 11:50:27;;;;;;;4.03;2.15;;;;;;;;;;5087137;28;20181;-68
2022/03/14 11:52:53;;;;;;;3.60;2.10;;;;;;;;;;5087665;28;20063;-68
2022/03/14 11:55:28;;;;;;;3.67;2.28;;;;;;;;;;5087370;28;20043;-68
2022/03/14 11:57:55;;;;;;;3.95;2.22;;;;;;;;;;5088263;28;20043;-68
2022/03/14 12:00:27;;;;;;;4.75;2.40;;;;;;;;;;5069262;28;20571;-68
2022/03/14 12:02:54;;;;;;;6.15;2.40;;;;;;;;;;5087405;28;20048;-68
2022/03/14 12:05:32;;;;;;;3.05;2.08;;;;;;;;;;5087935;28;20338;-68
2022/03/14 12:07:58;;;;;;;3.33;2.13;;;;;;;;;;5087494;28;20347;-68
2022/03/14 12:10:35;;;;;;;3.72;2.08;;;;;;;;;;5087552;28;20059;-70
2022/03/14 12:13:02;;;;;;;3.95;2.10;;;;;;;;;;5049557;28;20123;-70
2022/03/14 12:15:37;;;;;;;5.50;2.67;;;;;;;;;;5085791;28;20052;-69
2022/03/14 12:18:23;;;;;;;6.03;2.90;;;;;;;;;;5078973;28;20040;-70
2022/03/14 12:20:52;;;;;;;5.07;2.38;;;;;;;;;;5082430;28;20042;-69
2022/03/14 12:23:28;;;;;;;7.35;2.60;;;;;;;;;;5086970;28;20152;-69
2022/03/14 12:25:56;;;;;;;4.45;2.35;;;;;;;;;;5085605;28;20123;-70
2022/03/14 12:28:26;;;;;;;5.07;2.70;;;;;;;;;;5085435;28;20037;-70
2022/03/14 12:30:56;;;;;;;5.07;2.78;;;;;;;;;;5086623;28;20184;-70
2022/03/14 12:33:36;;;;;;;5.05;3.00;;;;;;;;;;5068086;28;20056;-71
2022/03/14 12:36:23;;;;;;;4.60;2.50;;;;;;;;;;5085873;28;20410;-70
2022/03/14 12:39:12;;;;;;;5.05;2.83;;;;;;;;;;5084749;28;20040;-70
2022/03/14 12:41:43;;;;;;;4.65;2.50;;;;;;;;;;5058383;28;20505;-71
2022/03/14 12:44:21;;;;;;;5.45;2.70;;;;;;;;;;5070006;28;20538;-71
2022/03/14 12:46:48;;;;;;;4.93;2.50;;;;;;;;;;5087960;28;20126;-71
2022/03/14 12:49:27;;;;;;;4.65;2.25;;;;;;;;;;5087885;28;20040;-72
2022/03/14 12:52:13;;;;;;;4.38;2.40;;;;;;;;;;5087600;28;20052;-71
2022/03/14 12:54:39;;;;;;;5.78;2.45;;;;;;;;;;5087583;28;20048;-72
2022/03/14 12:57:06;;;;;;;4.22;2.50;;;;;;;;;;5086200;28;20404;-72
2022/03/14 12:59:41;;;;;;;4.88;2.25;;;;;;;;;;5070215;28;20074;-72
2022/03/14 13:02:08;;;;;;;4.57;2.50;;;;;;;;;;5087652;28;20040;-72
2022/03/14 13:04:35;;;;;;;4.90;2.60;;;;;;;;;;5087875;28;20127;-71
2022/03/14 13:07:01;;;;;;;5.25;2.60;;;;;;;;;;5088464;28;20161;-71
2022/03/14 13:09:28;;;;;;;5.40;2.25;;;;;;;;;;5088002;28;20044;-71
2022/03/14 13:11:58;;;;;;;5.05;2.42;;;;;;;;;;5089415;28;20455;-71
2022/03/14 13:14:25;;;;;;;4.63;2.50;;;;;;;;;;5109641;28;20402;-71
2022/03/14 13:16:55;;;;;;;6.50;2.35;;;;;;;;;;5103255;28;20044;-72
2022/03/14 13:19:23;;;;;;;7.25;3.03;;;;;;;;;;5091402;28;20196;-71
2022/03/14 13:21:49;;;;;;;7.65;2.72;;;;;;;;;;5091420;28;20153;-71
2022/03/14 13:24:16;;;;;;;4.85;2.33;;;;;;;;;;5091643;28;20050;-71
2022/03/14 13:26:45;;;;;;;4.25;2.55;;;;;;;;;;5072014;28;20212;-71
2022/03/14 13:29:11;;;;;;;6.22;2.38;;;;;;;;;;5091149;28;20083;-71
2022/03/14 13:31:37;;;;;;;4.15;2.05;;;;;;;;;;5091004;28;20136;-70
2022/03/14 13:34:04;;;;;;;4.70;2.50;;;;;;;;;;5090952;28;20047;-70
2022/03/14 13:36:54;;;;;;;5.85;2.38;;;;;;;;;;5090873;28;20056;-70
2022/03/14 13:39:20;;;;;;;;;;;;;;;;;;5071092;28;20045;-70
2022/03/14 13:41:46;;;;;;;4.32;2.40;;;;;;;;;;5086873;28;20054;-71
2022/03/14 13:44:19;;;;;;;4.40;2.03;;;;;;;;;;5090467;28;20446;-69
2022/03/14 13:46:49;;;;;;;4.03;1.92;;;;;;;;;;5090683;28;20136;-69
2022/03/14 13:49:15;;;;;;;5.88;2.47;;;;;;;;;;5090135;28;20063;-70
2022/03/14 13:52:03;;;;;;;4.50;2.28;;;;;;;;;;5086720;28;20067;-70
2022/03/14 13:54:33;;;;;;;5.22;2.50;;;;;;;;;;5087634;28;20180;-70
2022/03/14 13:57:05;;;;;;;3.75;1.92;;;;;;;;;;5088624;28;20087;-71
2022/03/14 13:59:35;;;;;;;4.15;2.00;;;;;;;;;;5068112;28;20146;-71
2022/03/14 14:02:05;;;;;;;4.20;2.15;;;;;;;;;;5088516;28;20064;-71
2022/03/14 14:04:35;;;;;;;4.72;2.20;;;;;;;;;;5086530;28;20036;-70
2022/03/14 14:07:02;;;;;;;4.03;2.03;;;;;;;;;;5087943;28;20059;-70
2022/03/14 14:09:40;;;;;;;4.25;2.03;;;;;;;;;;5087507;28;20071;-70
2022/03/14 14:12:06;;;;;;;3.63;1.85;;;;;;;;;;5088149;28;20144;-70
2022/03/14 14:14:33;;;;;;;5.18;1.80;;;;;;;;;;5088175;28;20044;-69
2022/03/14 14:17:10;;;;;;;5.55;2.25;;;;;;;;;;5087654;28;20083;-69
2022/03/14 14:19:36;;;;;;;4.82;2.25;;;;;;;;;;5088270;28;20107;-70
2022/03/14 14:22:02;;;;;;;4.40;2.15;;;;;;;;;;5085696;28;20040;-70
2022/03/14 14:24:29;;;;;;;4.65;2.10;;;;;;;;;;5070040;28;20069;-70
2022/03/14 14:26:55;;;;;;;3.10;1.80;;;;;;;;;;5069534;28;20079;-71
2022/03/14 14:29:40;;;;;;;4.72;1.98;;;;;;;;;;5086248;28;20042;-70
2022/03/14 14:32:16;;;;;;;4.53;1.70;;;;;;;;;;5086366;28;20085;-70
2022/03/14 14:34:43;;;;;;;6.63;2.38;;;;;;;;;;5087086;28;20056;-70
2022/03/14 14:37:10;;;;;;;4.80;1.90;;;;;;;;;;5088167;28;20094;-69
2022/03/14 14:39:37;;;;;;;4.30;1.77;;;;;;;;;;5087580;28;20044;-70
2022/03/14 14:42:10;;;;;;;4.28;1.77;;;;;;;;;;5068729;28;20036;-70
2022/03/14 14:44:36;;;;;;;4.20;1.60;;;;;;;;;;5050794;28;20455;-71
2022/03/14 14:47:04;;;;;;;3.40;1.65;;;;;;;;;;5087620;28;20040;-70